Time;durP1;ratioP1;P1;durP2;ratioP2;P2;SDS_P1;SDS_P2;PMS_P1;PMS_P2;Temp;Humidity;BMP_temperature;BMP_pressure;BME280_temperature;BME280_humidity;BME280_pressure;Samples;Min_cycle;Max_cycle;Signal;HPM_P1;HPM_P2
2022/12/29 00:01:52;;;;;;;4.60;1.00;;;;;;;;;;5031828;28;20033;-64
2022/12/29 00:04:17;;;;;;;2.85;1.08;;;;;;;;;;5033681;28;20443;-64
2022/12/29 00:06:42;;;;;;;3.00;0.90;;;;;;;;;;5033892;28;20025;-64
2022/12/29 00:09:08;;;;;;;3.78;1.10;;;;;;;;;;5021918;28;20036;-65
2022/12/29 00:11:33;;;;;;;4.38;0.93;;;;;;;;;;5016817;28;20036;-65
2022/12/29 00:16:43;;;;;;;4.32;0.98;;;;;;;;;;5014700;28;20084;-65
2022/12/29 00:35:07;;;;;;;2.60;0.75;;;;;;;;;;5017643;28;20018;-65
2022/12/29 00:35:33;;;;;;;;;;;;;;;;;;5033721;28;20037;-64
2022/12/29 00:46:13;;;;;;;3.15;0.90;;;;;;;;;;5032967;28;20079;-64
2022/12/29 00:51:22;;;;;;;2.00;0.60;;;;;;;;;;5032370;28;20060;-64
2022/12/29 00:53:47;;;;;;;4.15;0.93;;;;;;;;;;5031178;28;20444;-64
2022/12/29 00:56:12;;;;;;;3.35;0.88;;;;;;;;;;5032841;28;20508;-65
2022/12/29 00:58:37;;;;;;;3.53;0.80;;;;;;;;;;5032281;28;20025;-65
2022/12/29 01:01:07;;;;;;;3.87;0.80;;;;;;;;;;5021712;28;20384;-65
2022/12/29 01:03:32;;;;;;;2.97;0.85;;;;;;;;;;5029769;28;20029;-65
2022/12/29 01:06:00;;;;;;;3.65;0.80;;;;;;;;;;5032373;28;20025;-65
2022/12/29 01:08:26;;;;;;;3.40;0.80;;;;;;;;;;5032274;28;20120;-65
2022/12/29 01:10:51;;;;;;;;;;;;;;;;;;5032835;28;20222;-64
2022/12/29 01:13:17;;;;;;;2.42;0.80;;;;;;;;;;5029677;28;19996;-65
2022/12/29 01:15:48;;;;;;;3.75;0.70;;;;;;;;;;5031134;28;20109;-64
2022/12/29 01:18:13;;;;;;;3.38;0.80;;;;;;;;;;5013101;28;20125;-64
2022/12/29 01:20:38;;;;;;;2.50;0.70;;;;;;;;;;5011651;28;20441;-64
2022/12/29 01:23:04;;;;;;;3.38;0.98;;;;;;;;;;5010519;28;20018;-64
2022/12/29 01:25:29;;;;;;;4.13;0.90;;;;;;;;;;5014142;28;20030;-64
2022/12/29 01:27:54;;;;;;;2.83;0.88;;;;;;;;;;5012589;28;20638;-64
2022/12/29 01:30:19;;;;;;;2.25;0.70;;;;;;;;;;5020685;28;20030;-64
2022/12/29 01:32:44;;;;;;;4.13;0.97;;;;;;;;;;5022642;28;20038;-64
2022/12/29 01:35:10;;;;;;;3.63;1.00;;;;;;;;;;5027919;28;20389;-64
2022/12/29 01:37:35;;;;;;;3.20;0.80;;;;;;;;;;5030880;28;20033;-64
2022/12/29 01:40:00;;;;;;;2.08;0.70;;;;;;;;;;5029849;28;20564;-64
2022/12/29 01:42:26;;;;;;;2.30;0.70;;;;;;;;;;5032161;28;20021;-64
2022/12/29 01:44:53;;;;;;;3.55;0.90;;;;;;;;;;5021778;28;20107;-64
2022/12/29 01:47:41;;;;;;;2.72;0.85;;;;;;;;;;5029565;28;20045;-64
2022/12/29 01:50:09;;;;;;;3.40;0.80;;;;;;;;;;5024749;28;20116;-64
2022/12/29 01:52:36;;;;;;;3.22;1.10;;;;;;;;;;5026878;28;20032;-64
2022/12/29 01:55:02;;;;;;;4.25;1.00;;;;;;;;;;5017840;28;20030;-64
2022/12/29 01:57:29;;;;;;;3.80;1.33;;;;;;;;;;5029743;28;20026;-64
2022/12/29 01:59:58;;;;;;;3.22;1.10;;;;;;;;;;5030037;28;20099;-64
2022/12/29 02:02:23;;;;;;;3.03;0.93;;;;;;;;;;5031393;28;20843;-64
2022/12/29 02:04:48;;;;;;;4.53;1.35;;;;;;;;;;5029493;28;20101;-64
2022/12/29 02:07:18;;;;;;;5.10;1.20;;;;;;;;;;5028772;28;20030;-63
2022/12/29 02:09:46;;;;;;;4.82;1.40;;;;;;;;;;5016761;28;20030;-63
2022/12/29 02:12:11;;;;;;;4.22;1.48;;;;;;;;;;5013398;28;20116;-64
2022/12/29 02:14:36;;;;;;;3.93;1.23;;;;;;;;;;5030193;28;20025;-64
2022/12/29 02:17:18;;;;;;;4.27;1.27;;;;;;;;;;5028316;28;20026;-64
2022/12/29 02:19:58;;;;;;;3.22;1.20;;;;;;;;;;5031100;28;20025;-64
2022/12/29 02:22:26;;;;;;;4.78;1.50;;;;;;;;;;5031232;28;20018;-64
2022/12/29 02:25:03;;;;;;;4.38;1.10;;;;;;;;;;5021552;28;20097;-64
2022/12/29 02:27:41;;;;;;;6.68;1.33;;;;;;;;;;5029179;28;20021;-64
2022/12/29 02:30:09;;;;;;;3.95;1.20;;;;;;;;;;5031423;28;20075;-65
2022/12/29 02:33:13;;;;;;;5.95;1.20;;;;;;;;;;5029868;28;20663;-64
2022/12/29 02:35:52;;;;;;;4.15;1.20;;;;;;;;;;5012230;28;20095;-64
2022/12/29 02:38:24;;;;;;;2.95;0.90;;;;;;;;;;5016906;28;20536;-64
2022/12/29 02:41:05;;;;;;;1.92;0.77;;;;;;;;;;5020147;28;20132;-64
2022/12/29 02:43:36;;;;;;;4.45;1.10;;;;;;;;;;5027090;28;20092;-64
2022/12/29 02:46:10;;;;;;;4.20;0.90;;;;;;;;;;5018667;28;20029;-64
2022/12/29 02:48:42;;;;;;;2.72;0.93;;;;;;;;;;5013254;28;20465;-64
2022/12/29 02:51:10;;;;;;;2.78;0.93;;;;;;;;;;5015771;28;20025;-64
2022/12/29 02:56:20;;;;;;;2.67;0.82;;;;;;;;;;5014376;28;20029;-64
2022/12/29 02:58:45;;;;;;;2.65;0.80;;;;;;;;;;5028111;28;20030;-64
2022/12/29 03:01:22;;;;;;;4.97;0.90;;;;;;;;;;5016474;28;20112;-64
2022/12/29 03:04:00;;;;;;;3.33;0.85;;;;;;;;;;5023117;28;20392;-64
2022/12/29 03:06:31;;;;;;;2.63;0.90;;;;;;;;;;5015804;28;20033;-63
2022/12/29 03:09:02;;;;;;;3.40;0.80;;;;;;;;;;5013315;28;20030;-64
2022/12/29 03:17:24;;;;;;;4.90;0.90;;;;;;;;;;5017785;28;20088;-64
2022/12/29 03:19:51;;;;;;;2.67;0.80;;;;;;;;;;5015402;28;20029;-64
2022/12/29 03:22:30;;;;;;;3.40;0.93;;;;;;;;;;5014975;28;20026;-64
2022/12/29 03:25:07;;;;;;;3.40;0.90;;;;;;;;;;5010146;28;20044;-63
2022/12/29 03:27:34;;;;;;;3.60;1.00;;;;;;;;;;5016615;28;20083;-64
2022/12/29 03:30:04;;;;;;;3.47;1.00;;;;;;;;;;5028114;28;20360;-63
2022/12/29 03:32:34;;;;;;;3.53;1.00;;;;;;;;;;5018310;28;20108;-64
2022/12/29 03:35:00;;;;;;;3.00;1.00;;;;;;;;;;5019841;28;20500;-63
2022/12/29 03:37:28;;;;;;;3.72;1.13;;;;;;;;;;5028810;28;20105;-64
2022/12/29 03:39:53;;;;;;;3.97;1.10;;;;;;;;;;5025437;28;20037;-63
2022/12/29 03:42:20;;;;;;;4.05;1.20;;;;;;;;;;5028294;28;20083;-64
2022/12/29 03:44:45;;;;;;;3.45;1.20;;;;;;;;;;5028499;28;20036;-63
2022/12/29 03:47:11;;;;;;;3.47;1.30;;;;;;;;;;5029344;28;20426;-63
2022/12/29 03:49:37;;;;;;;3.78;1.20;;;;;;;;;;5026128;28;20017;-63
2022/12/29 03:52:02;;;;;;;3.58;1.00;;;;;;;;;;5018792;28;20022;-64
2022/12/29 03:54:27;;;;;;;4.43;1.30;;;;;;;;;;5011048;28;20095;-64
2022/12/29 03:56:52;;;;;;;5.77;1.20;;;;;;;;;;5029322;28;20017;-64
2022/12/29 03:59:17;;;;;;;2.78;1.02;;;;;;;;;;5029146;28;20026;-63
2022/12/29 04:01:43;;;;;;;4.97;1.30;;;;;;;;;;5026360;28;20026;-64
2022/12/29 04:04:08;;;;;;;3.63;1.13;;;;;;;;;;5018609;28;20014;-64
2022/12/29 04:06:33;;;;;;;3.43;1.10;;;;;;;;;;5029901;28;20028;-64
2022/12/29 04:08:58;;;;;;;2.95;1.20;;;;;;;;;;5027117;28;20051;-64
2022/12/29 04:11:23;;;;;;;3.30;1.00;;;;;;;;;;5027578;28;20032;-63
2022/12/29 04:13:48;;;;;;;3.43;1.20;;;;;;;;;;5023270;28;20042;-64
2022/12/29 04:16:14;;;;;;;4.20;1.07;;;;;;;;;;5027474;28;20496;-64
2022/12/29 04:18:39;;;;;;;4.20;1.52;;;;;;;;;;5027448;28;20489;-64
2022/12/29 04:21:05;;;;;;;3.70;1.20;;;;;;;;;;5023102;28;20029;-65
2022/12/29 04:23:31;;;;;;;4.55;1.10;;;;;;;;;;5025398;28;20361;-64
2022/12/29 04:25:57;;;;;;;3.35;1.15;;;;;;;;;;5027861;28;20029;-63
2022/12/29 04:28:22;;;;;;;5.18;1.27;;;;;;;;;;5029961;28;20020;-64
2022/12/29 04:30:47;;;;;;;4.00;0.93;;;;;;;;;;5027970;28;20034;-64
2022/12/29 04:33:12;;;;;;;3.77;1.10;;;;;;;;;;5026167;28;20021;-63
2022/12/29 04:35:37;;;;;;;3.58;1.30;;;;;;;;;;5020950;28;20413;-64
2022/12/29 04:38:03;;;;;;;4.43;0.90;;;;;;;;;;5023435;28;20049;-64
2022/12/29 04:40:28;;;;;;;5.30;1.20;;;;;;;;;;5025046;28;20018;-64
2022/12/29 04:42:53;;;;;;;3.60;1.20;;;;;;;;;;5017510;28;20022;-64
2022/12/29 04:45:18;;;;;;;4.27;1.57;;;;;;;;;;5020474;28;20038;-64
2022/12/29 04:47:43;;;;;;;4.40;1.10;;;;;;;;;;5032248;28;20037;-63
2022/12/29 04:50:09;;;;;;;4.32;1.33;;;;;;;;;;5027393;28;20068;-64
2022/12/29 04:52:34;;;;;;;3.75;1.38;;;;;;;;;;5030752;28;20068;-65
2022/12/29 04:54:59;;;;;;;5.03;1.50;;;;;;;;;;5032678;28;20029;-65
2022/12/29 04:57:24;;;;;;;4.38;1.77;;;;;;;;;;5032102;28;20490;-64
2022/12/29 04:59:49;;;;;;;4.75;1.42;;;;;;;;;;5017744;28;20025;-64
2022/12/29 05:02:15;;;;;;;3.70;1.10;;;;;;;;;;5021841;28;20022;-64
2022/12/29 05:04:40;;;;;;;3.53;1.20;;;;;;;;;;5032858;28;20032;-64
2022/12/29 05:07:05;;;;;;;4.97;1.10;;;;;;;;;;5032357;28;20032;-64
2022/12/29 05:09:30;;;;;;;4.78;1.13;;;;;;;;;;5032737;28;20087;-65
2022/12/29 05:11:56;;;;;;;2.73;1.00;;;;;;;;;;5030451;28;20376;-64
2022/12/29 05:14:21;;;;;;;4.50;1.05;;;;;;;;;;5026732;28;20122;-64
2022/12/29 05:16:46;;;;;;;3.28;1.10;;;;;;;;;;5026670;28;20021;-65
2022/12/29 05:19:11;;;;;;;3.42;1.00;;;;;;;;;;5031441;28;20021;-65
2022/12/29 05:21:37;;;;;;;2.60;0.77;;;;;;;;;;5032179;28;20018;-65
2022/12/29 05:24:02;;;;;;;3.17;0.80;;;;;;;;;;5027880;28;20087;-65
2022/12/29 05:26:27;;;;;;;2.60;0.80;;;;;;;;;;5032218;28;20033;-65
2022/12/29 05:28:52;;;;;;;3.73;0.90;;;;;;;;;;5032247;28;20018;-65
2022/12/29 05:31:17;;;;;;;3.23;0.80;;;;;;;;;;5031629;28;20349;-65
2022/12/29 05:33:42;;;;;;;2.97;0.80;;;;;;;;;;5027675;28;20554;-66
2022/12/29 05:36:08;;;;;;;4.53;0.90;;;;;;;;;;5032348;28;20488;-63
2022/12/29 05:38:33;;;;;;;3.13;0.63;;;;;;;;;;5029654;28;20018;-63
2022/12/29 05:40:58;;;;;;;3.67;0.80;;;;;;;;;;5014921;28;20067;-63
2022/12/29 05:43:24;;;;;;;3.08;0.70;;;;;;;;;;5027394;28;20501;-63
2022/12/29 05:45:49;;;;;;;3.38;0.90;;;;;;;;;;5023968;28;20119;-63
2022/12/29 05:48:14;;;;;;;2.55;0.70;;;;;;;;;;5026873;28;20018;-63
2022/12/29 05:50:39;;;;;;;1.88;0.70;;;;;;;;;;5019015;28;20445;-63
2022/12/29 05:53:05;;;;;;;3.90;0.80;;;;;;;;;;5021982;28;20033;-63
2022/12/29 05:55:30;;;;;;;4.43;0.80;;;;;;;;;;5013619;28;20030;-63
2022/12/29 05:57:55;;;;;;;3.78;0.80;;;;;;;;;;5024984;28;20032;-63
2022/12/29 06:00:21;;;;;;;3.22;0.80;;;;;;;;;;5028899;28;20039;-64
2022/12/29 06:02:46;;;;;;;2.55;0.85;;;;;;;;;;5027523;28;20108;-64
2022/12/29 06:05:11;;;;;;;3.63;0.80;;;;;;;;;;5027892;28;20099;-64
2022/12/29 06:07:36;;;;;;;4.03;0.80;;;;;;;;;;5029176;28;20021;-64
2022/12/29 06:10:01;;;;;;;3.37;1.13;;;;;;;;;;5031463;28;20061;-65
2022/12/29 06:12:26;;;;;;;2.77;0.70;;;;;;;;;;5031172;28;20041;-64
2022/12/29 06:14:52;;;;;;;2.63;0.73;;;;;;;;;;5030222;28;20042;-64
2022/12/29 06:17:17;;;;;;;2.50;0.80;;;;;;;;;;5020376;28;20026;-64
2022/12/29 06:19:43;;;;;;;2.20;0.67;;;;;;;;;;5022022;28;20026;-64
2022/12/29 06:22:11;;;;;;;3.45;1.10;;;;;;;;;;5023601;28;20117;-65
2022/12/29 06:24:36;;;;;;;1.92;0.65;;;;;;;;;;5022020;28;20563;-65
2022/12/29 06:27:02;;;;;;;2.72;0.70;;;;;;;;;;5011157;28;20020;-65
2022/12/29 06:29:27;;;;;;;3.03;0.77;;;;;;;;;;5013465;28;20396;-64
2022/12/29 06:31:55;;;;;;;2.25;0.70;;;;;;;;;;5027645;28;21019;-65
2022/12/29 06:34:21;;;;;;;4.18;0.77;;;;;;;;;;5025522;28;20079;-65
2022/12/29 06:36:46;;;;;;;2.20;0.70;;;;;;;;;;5024036;28;20030;-65
2022/12/29 06:39:11;;;;;;;3.40;1.00;;;;;;;;;;5024942;28;20036;-65
2022/12/29 06:41:36;;;;;;;4.40;0.80;;;;;;;;;;5023638;28;20025;-64
2022/12/29 06:44:01;;;;;;;3.95;0.80;;;;;;;;;;5026166;28;20037;-64
2022/12/29 06:46:26;;;;;;;2.80;0.90;;;;;;;;;;5024273;28;20032;-64
2022/12/29 06:48:51;;;;;;;2.53;0.80;;;;;;;;;;5021580;28;20087;-64
2022/12/29 06:51:17;;;;;;;2.30;0.65;;;;;;;;;;5010934;28;20473;-65
2022/12/29 06:53:42;;;;;;;3.00;0.65;;;;;;;;;;5010636;28;20108;-65
2022/12/29 06:56:07;;;;;;;2.35;0.77;;;;;;;;;;5011580;28;20088;-64
2022/12/29 06:58:33;;;;;;;3.13;1.02;;;;;;;;;;5008991;28;20425;-65
2022/12/29 07:00:58;;;;;;;2.10;0.65;;;;;;;;;;5016696;28;20520;-64
2022/12/29 07:03:23;;;;;;;2.42;0.80;;;;;;;;;;5031055;28;20017;-65
2022/12/29 07:05:48;;;;;;;2.97;0.80;;;;;;;;;;5021884;28;20014;-65
2022/12/29 07:08:13;;;;;;;2.70;0.70;;;;;;;;;;5032036;28;20072;-64
2022/12/29 07:10:39;;;;;;;2.72;0.82;;;;;;;;;;5019066;28;20033;-64
2022/12/29 07:13:04;;;;;;;2.15;0.60;;;;;;;;;;5012134;28;20047;-64
2022/12/29 07:15:29;;;;;;;2.47;0.93;;;;;;;;;;5025080;28;20037;-64
2022/12/29 07:17:54;;;;;;;2.43;0.60;;;;;;;;;;5027219;28;20045;-65
2022/12/29 07:20:20;;;;;;;5.07;0.70;;;;;;;;;;5026080;28;20022;-65
2022/12/29 07:22:46;;;;;;;2.23;0.70;;;;;;;;;;5020784;28;20036;-65
2022/12/29 07:25:12;;;;;;;2.88;0.70;;;;;;;;;;5029828;28;20592;-64
2022/12/29 07:27:37;;;;;;;2.53;0.60;;;;;;;;;;5025095;28;20108;-65
2022/12/29 07:30:02;;;;;;;2.00;0.70;;;;;;;;;;5011959;28;20385;-65
2022/12/29 07:32:27;;;;;;;3.83;0.63;;;;;;;;;;5018323;28;20021;-64
2022/12/29 07:34:52;;;;;;;1.58;0.60;;;;;;;;;;5020469;28;20113;-66
2022/12/29 07:37:18;;;;;;;3.07;0.80;;;;;;;;;;5018968;28;20032;-66
2022/12/29 07:39:43;;;;;;;2.58;0.80;;;;;;;;;;5015828;28;20022;-65
2022/12/29 07:42:08;;;;;;;4.05;0.70;;;;;;;;;;5025039;28;20511;-65
2022/12/29 07:44:33;;;;;;;2.80;0.70;;;;;;;;;;5021508;28;20140;-66
2022/12/29 07:46:58;;;;;;;3.33;0.70;;;;;;;;;;5019621;28;20026;-66
2022/12/29 07:49:24;;;;;;;3.08;0.80;;;;;;;;;;5016196;28;20376;-63
2022/12/29 07:51:49;;;;;;;2.30;0.80;;;;;;;;;;5009166;28;20026;-64
2022/12/29 07:54:14;;;;;;;2.40;0.70;;;;;;;;;;5018109;28;20714;-64
2022/12/29 07:56:39;;;;;;;2.95;0.70;;;;;;;;;;5017902;28;20021;-64
2022/12/29 07:59:04;;;;;;;3.33;0.73;;;;;;;;;;5020961;28;20036;-65
2022/12/29 08:01:29;;;;;;;5.03;0.90;;;;;;;;;;5014797;28;20477;-66
2022/12/29 08:03:54;;;;;;;5.07;1.43;;;;;;;;;;5025346;28;20021;-66
2022/12/29 08:06:20;;;;;;;6.13;1.83;;;;;;;;;;5019406;28;20033;-66
2022/12/29 08:08:45;;;;;;;7.13;3.00;;;;;;;;;;5016744;28;20476;-64
2022/12/29 08:11:10;;;;;;;8.77;4.10;;;;;;;;;;5022787;28;20039;-64
2022/12/29 08:13:35;;;;;;;4.73;1.70;;;;;;;;;;5024094;28;20060;-65
2022/12/29 08:16:00;;;;;;;4.43;1.33;;;;;;;;;;5019307;28;20031;-67
2022/12/29 08:18:25;;;;;;;5.43;1.40;;;;;;;;;;5020286;28;20049;-65
2022/12/29 08:20:51;;;;;;;5.32;1.30;;;;;;;;;;5013354;28;20017;-64
2022/12/29 08:23:16;;;;;;;4.53;1.50;;;;;;;;;;5013872;28;20022;-65
2022/12/29 08:25:41;;;;;;;4.88;1.52;;;;;;;;;;5024049;28;20740;-65
2022/12/29 08:28:06;;;;;;;3.67;1.30;;;;;;;;;;5017913;28;20037;-64
2022/12/29 08:30:31;;;;;;;4.25;1.55;;;;;;;;;;5015840;28;20021;-66
2022/12/29 08:32:56;;;;;;;3.83;1.27;;;;;;;;;;5022837;28;20113;-65
2022/12/29 08:35:22;;;;;;;3.53;1.27;;;;;;;;;;5029053;28;20026;-65
2022/12/29 08:37:47;;;;;;;3.80;1.50;;;;;;;;;;5021160;28;20025;-68
2022/12/29 08:40:12;;;;;;;6.70;1.30;;;;;;;;;;5009426;28;20113;-65
2022/12/29 08:42:37;;;;;;;3.58;1.33;;;;;;;;;;5017775;28;20018;-65
2022/12/29 08:45:03;;;;;;;4.32;1.23;;;;;;;;;;5026760;28;20087;-65
2022/12/29 08:47:28;;;;;;;4.25;1.38;;;;;;;;;;5022579;28;20018;-65
2022/12/29 08:49:53;;;;;;;3.80;1.48;;;;;;;;;;5019222;28;20384;-65
2022/12/29 08:52:18;;;;;;;3.88;1.50;;;;;;;;;;5019825;28;20030;-64
2022/12/29 08:54:43;;;;;;;5.15;1.45;;;;;;;;;;5022202;28;20033;-64
2022/12/29 08:57:09;;;;;;;4.10;1.13;;;;;;;;;;5031239;28;20052;-64
2022/12/29 08:59:34;;;;;;;3.47;1.23;;;;;;;;;;5022113;28;20030;-64
2022/12/29 09:02:00;;;;;;;2.97;0.90;;;;;;;;;;5032152;28;20464;-64
2022/12/29 09:04:25;;;;;;;3.58;0.90;;;;;;;;;;5032692;28;20480;-64
2022/12/29 09:06:50;;;;;;;2.90;0.90;;;;;;;;;;5032334;28;20021;-63
2022/12/29 09:09:15;;;;;;;4.40;0.90;;;;;;;;;;5032457;28;20025;-63
2022/12/29 09:11:41;;;;;;;3.67;0.90;;;;;;;;;;5032921;28;20052;-64
2022/12/29 09:14:06;;;;;;;2.72;0.70;;;;;;;;;;5032465;28;20057;-67
2022/12/29 09:16:32;;;;;;;3.50;0.83;;;;;;;;;;5032958;28;20021;-65
2022/12/29 09:18:57;;;;;;;3.33;0.70;;;;;;;;;;5032840;28;20488;-63
2022/12/29 09:21:22;;;;;;;4.53;0.95;;;;;;;;;;5032661;28;20436;-64
2022/12/29 09:23:47;;;;;;;3.22;0.90;;;;;;;;;;5032171;28;20032;-65
2022/12/29 09:26:12;;;;;;;2.15;0.80;;;;;;;;;;5032292;28;20033;-64
2022/12/29 09:28:38;;;;;;;3.72;0.90;;;;;;;;;;5032598;28;20045;-64
2022/12/29 09:31:03;;;;;;;3.13;0.73;;;;;;;;;;5032512;28;20083;-65
2022/12/29 09:33:28;;;;;;;3.43;1.00;;;;;;;;;;5032922;28;20045;-64
2022/12/29 09:35:57;;;;;;;3.57;1.50;;;;;;;;;;5032203;28;20484;-63
2022/12/29 09:38:23;;;;;;;3.35;0.93;;;;;;;;;;5032840;28;20486;-64
2022/12/29 09:40:50;;;;;;;1.77;0.57;;;;;;;;;;5032462;28;20021;-64
2022/12/29 09:43:34;;;;;;;3.00;0.60;;;;;;;;;;5032386;28;20488;-63
2022/12/29 09:45:59;;;;;;;;;;;;;;;;;;5032687;28;20599;-63
2022/12/29 09:48:28;;;;;;;2.55;0.77;;;;;;;;;;5032284;28;20399;-63
2022/12/29 09:50:56;;;;;;;3.10;0.85;;;;;;;;;;5032034;28;20556;-64
2022/12/29 09:53:26;;;;;;;4.03;0.90;;;;;;;;;;5032071;28;20476;-64
2022/12/29 09:55:55;;;;;;;2.45;0.70;;;;;;;;;;5031945;28;20451;-64
2022/12/29 09:58:37;;;;;;;2.67;0.90;;;;;;;;;;5032139;28;20017;-64
2022/12/29 10:01:16;;;;;;;3.00;0.90;;;;;;;;;;5031645;28;20049;-64
2022/12/29 10:03:46;;;;;;;3.90;0.80;;;;;;;;;;5032269;28;20028;-64
2022/12/29 10:06:13;;;;;;;2.85;0.70;;;;;;;;;;5031867;28;20021;-63
2022/12/29 10:08:50;;;;;;;2.50;0.70;;;;;;;;;;5031990;28;20022;-64
2022/12/29 10:11:15;;;;;;;2.20;0.70;;;;;;;;;;5031895;28;20017;-64
2022/12/29 10:13:54;;;;;;;2.15;0.70;;;;;;;;;;5031402;28;20133;-65
2022/12/29 10:16:29;;;;;;;2.22;0.68;;;;;;;;;;5031682;28;20017;-65
2022/12/29 10:19:00;;;;;;;4.25;0.95;;;;;;;;;;5031516;28;20067;-65
2022/12/29 10:21:39;;;;;;;5.03;1.15;;;;;;;;;;5031578;28;20063;-65
2022/12/29 10:24:06;;;;;;;3.35;0.90;;;;;;;;;;5031550;28;20357;-65
2022/12/29 10:26:33;;;;;;;3.88;0.88;;;;;;;;;;5031013;28;20032;-65
2022/12/29 10:29:06;;;;;;;3.88;0.98;;;;;;;;;;5031578;28;20042;-65
2022/12/29 10:31:46;;;;;;;3.13;0.82;;;;;;;;;;5031466;28;20021;-65
2022/12/29 10:34:20;;;;;;;3.05;1.00;;;;;;;;;;5031103;28;20099;-64
2022/12/29 10:36:48;;;;;;;3.65;0.70;;;;;;;;;;5030379;28;20097;-63
2022/12/29 10:39:26;;;;;;;4.68;1.00;;;;;;;;;;5031098;28;20429;-64
2022/12/29 10:42:09;;;;;;;3.67;0.80;;;;;;;;;;5031286;28;20508;-64
2022/12/29 10:44:34;;;;;;;2.58;0.80;;;;;;;;;;5031227;28;20021;-64
2022/12/29 10:47:04;;;;;;;2.93;0.70;;;;;;;;;;5030158;28;20479;-64
2022/12/29 10:49:30;;;;;;;3.15;0.73;;;;;;;;;;5031321;28;20088;-64
2022/12/29 10:51:58;;;;;;;2.50;0.73;;;;;;;;;;5031158;28;20021;-64
2022/12/29 10:54:27;;;;;;;5.53;0.85;;;;;;;;;;5030882;28;20100;-64
2022/12/29 10:57:04;;;;;;;3.80;0.80;;;;;;;;;;5031393;28;20014;-64
2022/12/29 10:59:31;;;;;;;3.58;0.90;;;;;;;;;;5031158;28;20025;-64
2022/12/29 11:01:56;;;;;;;3.00;0.80;;;;;;;;;;5030825;28;20056;-64
2022/12/29 11:04:21;;;;;;;2.78;0.80;;;;;;;;;;5030828;28;20064;-64
2022/12/29 11:06:46;;;;;;;4.43;0.90;;;;;;;;;;5030716;28;20033;-65
2022/12/29 11:09:20;;;;;;;3.33;0.80;;;;;;;;;;5030978;28;20037;-65
2022/12/29 11:11:45;;;;;;;2.45;0.60;;;;;;;;;;5030857;28;20132;-65
2022/12/29 11:14:14;;;;;;;2.93;0.70;;;;;;;;;;5030066;28;20069;-65
2022/12/29 11:16:41;;;;;;;2.47;0.70;;;;;;;;;;5030575;28;20037;-65
2022/12/29 11:19:19;;;;;;;2.63;0.70;;;;;;;;;;5030574;28;20037;-65
2022/12/29 11:21:44;;;;;;;2.65;0.70;;;;;;;;;;5030882;28;20029;-65
2022/12/29 11:24:26;;;;;;;3.72;0.70;;;;;;;;;;5030762;28;20017;-65
2022/12/29 11:26:56;;;;;;;2.53;0.85;;;;;;;;;;5030420;28;20033;-65
2022/12/29 11:29:23;;;;;;;4.15;0.95;;;;;;;;;;5030593;28;20380;-65
2022/12/29 11:31:48;;;;;;;;;;;;;;;;;;5031178;28;20472;-65
2022/12/29 11:34:17;;;;;;;2.80;0.70;;;;;;;;;;5030486;28;19909;-65
2022/12/29 11:36:42;;;;;;;2.53;0.77;;;;;;;;;;5030345;28;20105;-64
2022/12/29 11:39:23;;;;;;;2.63;0.90;;;;;;;;;;5030316;28;20025;-65
2022/12/29 11:41:51;;;;;;;3.25;0.93;;;;;;;;;;5030346;28;20033;-66
2022/12/29 11:44:17;;;;;;;5.63;1.50;;;;;;;;;;5030558;28;20126;-65
2022/12/29 11:46:45;;;;;;;3.88;1.17;;;;;;;;;;5031731;28;20060;-65
2022/12/29 11:49:13;;;;;;;9.27;2.83;;;;;;;;;;5034372;28;20029;-64
2022/12/29 11:51:45;;;;;;;5.07;1.38;;;;;;;;;;5034446;28;20037;-63
2022/12/29 11:54:10;;;;;;;;;;;;;;;;;;5034881;28;20030;-65
2022/12/29 11:56:37;;;;;;;3.88;0.95;;;;;;;;;;5034232;28;19912;-65
2022/12/29 11:59:20;;;;;;;3.30;1.00;;;;;;;;;;5034175;28;20018;-64
2022/12/29 12:01:47;;;;;;;3.15;0.90;;;;;;;;;;5034477;28;20105;-64
2022/12/29 12:04:17;;;;;;;2.88;0.90;;;;;;;;;;5033963;28;20412;-65
2022/12/29 12:06:56;;;;;;;4.45;1.05;;;;;;;;;;5034062;28;20037;-65
2022/12/29 12:09:24;;;;;;;2.97;0.90;;;;;;;;;;5033851;28;20049;-65
2022/12/29 12:11:53;;;;;;;5.28;1.33;;;;;;;;;;5034500;28;20026;-65
2022/12/29 12:14:27;;;;;;;3.67;1.00;;;;;;;;;;5033855;28;20510;-63
2022/12/29 12:16:56;;;;;;;3.00;0.88;;;;;;;;;;5033974;28;20033;-64
2022/12/29 12:19:24;;;;;;;2.60;0.70;;;;;;;;;;5033876;28;20021;-64
2022/12/29 12:21:55;;;;;;;3.28;0.82;;;;;;;;;;5034271;28;20018;-64
2022/12/29 12:24:34;;;;;;;2.90;0.80;;;;;;;;;;5034061;28;20123;-65
2022/12/29 12:27:02;;;;;;;4.93;1.00;;;;;;;;;;5033621;28;20443;-64
2022/12/29 12:29:45;;;;;;;3.50;0.80;;;;;;;;;;5034135;28;20021;-65
2022/12/29 12:32:26;;;;;;;3.58;0.95;;;;;;;;;;5033543;28;20037;-64
2022/12/29 12:34:52;;;;;;;3.67;1.00;;;;;;;;;;5033960;28;20376;-64
2022/12/29 12:37:49;;;;;;;2.20;0.70;;;;;;;;;;5033400;28;20028;-65
2022/12/29 12:40:23;;;;;;;3.83;0.90;;;;;;;;;;5021311;28;20029;-64
2022/12/29 12:43:00;;;;;;;2.58;0.82;;;;;;;;;;5033629;28;20408;-64
2022/12/29 12:45:34;;;;;;;3.03;0.93;;;;;;;;;;5033755;28;20022;-64
2022/12/29 12:48:00;;;;;;;3.45;0.95;;;;;;;;;;5033120;28;20040;-64
2022/12/29 12:50:25;;;;;;;3.40;1.00;;;;;;;;;;5033647;28;20018;-65
2022/12/29 12:53:15;;;;;;;4.10;1.10;;;;;;;;;;5033447;28;20028;-65
2022/12/29 12:56:02;;;;;;;3.72;1.00;;;;;;;;;;5033315;28;20025;-65
2022/12/29 12:58:35;;;;;;;2.97;0.85;;;;;;;;;;5032201;28;20021;-65
2022/12/29 13:01:19;;;;;;;2.45;0.90;;;;;;;;;;5033123;28;20021;-65
2022/12/29 13:03:44;;;;;;;;;;;;;;;;;;5033790;28;20028;-64
2022/12/29 13:06:17;;;;;;;4.40;0.93;;;;;;;;;;5032932;28;19987;-65
2022/12/29 13:08:56;;;;;;;2.67;0.85;;;;;;;;;;5032089;28;20029;-64
2022/12/29 13:11:28;;;;;;;3.90;0.82;;;;;;;;;;5033013;28;20109;-65
2022/12/29 13:13:53;;;;;;;;;;;;;;;;;;5032876;28;20054;-65
2022/12/29 13:16:19;;;;;;;3.07;0.90;;;;;;;;;;5032767;28;19912;-65
2022/12/29 13:19:07;;;;;;;3.83;0.80;;;;;;;;;;5032929;28;20527;-64
2022/12/29 13:21:32;;;;;;;3.38;1.00;;;;;;;;;;5029467;28;20416;-65
2022/12/29 13:24:03;;;;;;;3.90;1.00;;;;;;;;;;5032635;28;20381;-64
2022/12/29 13:26:51;;;;;;;4.20;1.17;;;;;;;;;;5032809;28;20512;-64
2022/12/29 13:29:35;;;;;;;3.33;0.90;;;;;;;;;;5029698;28;20061;-64
2022/12/29 13:32:27;;;;;;;2.88;0.90;;;;;;;;;;5032761;28;20100;-64
2022/12/29 13:35:18;;;;;;;1.73;0.60;;;;;;;;;;5024316;28;20037;-64
2022/12/29 13:38:01;;;;;;;3.78;0.90;;;;;;;;;;5023731;28;20029;-64
2022/12/29 13:40:30;;;;;;;3.03;0.80;;;;;;;;;;5032720;28;20024;-64
2022/12/29 13:42:56;;;;;;;3.55;0.95;;;;;;;;;;5032652;28;20112;-64
2022/12/29 13:45:23;;;;;;;4.10;1.00;;;;;;;;;;5032834;28;20392;-65
2022/12/29 13:47:52;;;;;;;3.20;0.88;;;;;;;;;;5032546;28;20083;-64
2022/12/29 13:50:19;;;;;;;1.98;0.70;;;;;;;;;;5032182;28;20049;-65
2022/12/29 13:52:48;;;;;;;3.40;0.82;;;;;;;;;;5032292;28;20100;-65
2022/12/29 13:55:35;;;;;;;2.72;0.90;;;;;;;;;;5031979;28;20101;-66
2022/12/29 13:58:00;;;;;;;4.00;0.90;;;;;;;;;;5032154;28;20025;-65
2022/12/29 14:00:30;;;;;;;3.27;0.93;;;;;;;;;;5032414;28;20014;-65
2022/12/29 14:02:55;;;;;;;5.28;1.10;;;;;;;;;;5032001;28;20029;-65
2022/12/29 14:05:20;;;;;;;5.40;0.82;;;;;;;;;;5032396;28;20025;-65
2022/12/29 14:07:46;;;;;;;5.50;0.88;;;;;;;;;;5031829;28;20029;-66
2022/12/29 14:10:44;;;;;;;4.28;0.90;;;;;;;;;;5031596;28;20028;-65
2022/12/29 14:13:12;;;;;;;3.28;0.98;;;;;;;;;;5019261;28;20045;-66
2022/12/29 14:15:40;;;;;;;4.38;1.00;;;;;;;;;;5032066;28;20029;-65
2022/12/29 14:18:19;;;;;;;2.88;0.75;;;;;;;;;;5031616;28;20523;-65
2022/12/29 14:20:55;;;;;;;2.47;0.80;;;;;;;;;;5031773;28;20025;-66
2022/12/29 14:23:40;;;;;;;2.83;1.00;;;;;;;;;;5031495;28;20025;-65
2022/12/29 14:26:05;;;;;;;4.35;0.98;;;;;;;;;;5031399;28;20469;-65
2022/12/29 14:28:31;;;;;;;3.22;1.00;;;;;;;;;;5031565;28;20538;-65
2022/12/29 14:30:58;;;;;;;4.20;1.40;;;;;;;;;;5031596;28;20075;-65
2022/12/29 14:33:26;;;;;;;;;;;;;;;;;;5032229;28;20057;-65
2022/12/29 14:35:52;;;;;;;3.65;1.20;;;;;;;;;;5031860;28;19916;-63
2022/12/29 14:38:19;;;;;;;3.72;0.93;;;;;;;;;;5031655;28;20021;-65
2022/12/29 14:40:45;;;;;;;2.75;0.93;;;;;;;;;;5031319;28;20017;-64
2022/12/29 14:43:17;;;;;;;4.07;1.05;;;;;;;;;;5031201;28;20013;-64
2022/12/29 14:45:51;;;;;;;5.65;1.05;;;;;;;;;;5031494;28;20435;-64
2022/12/29 14:48:31;;;;;;;2.80;0.90;;;;;;;;;;5031263;28;20021;-65
2022/12/29 14:50:57;;;;;;;3.53;1.10;;;;;;;;;;5030701;28;20034;-66
2022/12/29 14:53:40;;;;;;;3.17;1.10;;;;;;;;;;5031068;28;20021;-65
2022/12/29 14:56:09;;;;;;;5.15;1.40;;;;;;;;;;5031039;28;20498;-65
2022/12/29 14:58:46;;;;;;;3.05;1.05;;;;;;;;;;5031080;28;20418;-65
2022/12/29 15:01:19;;;;;;;4.13;1.10;;;;;;;;;;5031005;28;20033;-65
2022/12/29 15:03:47;;;;;;;4.57;1.00;;;;;;;;;;5030959;28;20030;-65
2022/12/29 15:06:18;;;;;;;4.28;0.93;;;;;;;;;;5031088;28;20057;-65
2022/12/29 15:08:48;;;;;;;3.28;1.23;;;;;;;;;;5030383;28;20021;-65
2022/12/29 15:11:15;;;;;;;5.40;0.90;;;;;;;;;;5030954;28;20027;-65
2022/12/29 15:13:42;;;;;;;3.78;0.85;;;;;;;;;;5030275;28;20128;-65
2022/12/29 15:16:21;;;;;;;3.58;0.98;;;;;;;;;;5030624;28;20014;-65
2022/12/29 15:18:46;;;;;;;3.70;1.15;;;;;;;;;;5031017;28;20027;-65
2022/12/29 15:21:13;;;;;;;4.57;1.02;;;;;;;;;;5030330;28;20018;-65
2022/12/29 15:23:38;;;;;;;3.35;0.98;;;;;;;;;;5030669;28;20053;-65
2022/12/29 15:26:05;;;;;;;7.32;1.13;;;;;;;;;;5030585;28;20438;-65
2022/12/29 15:28:41;;;;;;;3.10;0.90;;;;;;;;;;5030682;28;20029;-65
2022/12/29 15:31:12;;;;;;;3.33;0.98;;;;;;;;;;5030607;28;20017;-65